sensor_id;sensor_type;location;lat;lon;timestamp;pressure;altitude;pressure_sealevel;temperature;humidity
78843;BME280;70542;53.774;-0.352;2023-09-19T00:00:38;100250;;;14;47
78843;BME280;70542;53.774;-0.352;2023-09-19T00:06:16;100260;;;13;49
78843;BME280;70542;53.774;-0.352;2023-09-19T00:11:55;100260;;;12;51
78843;BME280;70542;53.774;-0.352;2023-09-19T00:17:34;100260;;;14;47
78843;BME280;70542;53.774;-0.352;2023-09-19T00:23:13;100260;;;15;45
78843;BME280;70542;53.774;-0.352;2023-09-19T00:28:52;100250;;;13;50
78843;BME280;70542;53.774;-0.352;2023-09-19T00:34:35;100240;;;14;47
78843;BME280;70542;53.774;-0.352;2023-09-19T00:40:14;100240;;;15;46
78843;BME280;70542;53.774;-0.352;2023-09-19T00:45:55;100230;;;15;44
78843;BME280;70542;53.774;-0.352;2023-09-19T00:51:34;100220;;;14;48
78843;BME280;70542;53.774;-0.352;2023-09-19T00:57:13;100220;;;13;48
78843;BME280;70542;53.774;-0.352;2023-09-19T01:02:52;100220;;;14;47
78843;BME280;70542;53.774;-0.352;2023-09-19T01:08:32;100240;;;15;45
78843;BME280;70542;53.774;-0.352;2023-09-19T01:14:19;100230;;;15;45
78843;BME280;70542;53.774;-0.352;2023-09-19T01:20:11;100220;;;16;40
78843;BME280;70542;53.774;-0.352;2023-09-19T01:26:05;100230;;;15;44
78843;BME280;70542;53.774;-0.352;2023-09-19T01:31:45;100230;;;15;45
78843;BME280;70542;53.774;-0.352;2023-09-19T01:37:24;100230;;;15;44
78843;BME280;70542;53.774;-0.352;2023-09-19T01:43:08;100210;;;14;47
78843;BME280;70542;53.774;-0.352;2023-09-19T01:48:56;100220;;;14;46
78843;BME280;70542;53.774;-0.352;2023-09-19T01:54:41;100210;;;15;46
78843;BME280;70542;53.774;-0.352;2023-09-19T02:00:23;100220;;;14;47
78843;BME280;70542;53.774;-0.352;2023-09-19T02:06:02;100220;;;14;44
78843;BME280;70542;53.774;-0.352;2023-09-19T02:11:41;100220;;;14;48
78843;BME280;70542;53.774;-0.352;2023-09-19T02:17:19;100210;;;13;49
78843;BME280;70542;53.774;-0.352;2023-09-19T02:22:58;100210;;;14;46
78843;BME280;70542;53.774;-0.352;2023-09-19T02:28:37;100210;;;14;48
78843;BME280;70542;53.774;-0.352;2023-09-19T02:34:16;100210;;;15;45
78843;BME280;70542;53.774;-0.352;2023-09-19T02:39:56;100190;;;13;50
78843;BME280;70542;53.774;-0.352;2023-09-19T02:45:35;100190;;;13;48
78843;BME280;70542;53.774;-0.352;2023-09-19T02:51:14;100170;;;14;48
78843;BME280;70542;53.774;-0.352;2023-09-19T02:56:52;100150;;;13;49
78843;BME280;70542;53.774;-0.352;2023-09-19T03:02:31;100140;;;13;49
78843;BME280;70542;53.774;-0.352;2023-09-19T03:08:09;100150;;;14;46
78843;BME280;70542;53.774;-0.352;2023-09-19T03:13:51;100160;;;14;47
78843;BME280;70542;53.774;-0.352;2023-09-19T03:19:31;100150;;;15;45
78843;BME280;70542;53.774;-0.352;2023-09-19T03:25:10;100160;;;13;49
78843;BME280;70542;53.774;-0.352;2023-09-19T03:30:58;100150;;;14;48
78843;BME280;70542;53.774;-0.352;2023-09-19T03:36:37;100150;;;14;48
78843;BME280;70542;53.774;-0.352;2023-09-19T03:42:16;100140;;;15;47
78843;BME280;70542;53.774;-0.352;2023-09-19T03:47:54;100140;;;14;47
78843;BME280;70542;53.774;-0.352;2023-09-19T03:53:33;100140;;;14;45
78843;BME280;70542;53.774;-0.352;2023-09-19T03:59:12;100130;;;15;45
78843;BME280;70542;53.774;-0.352;2023-09-19T04:04:51;100120;;;15;45
78843;BME280;70542;53.774;-0.352;2023-09-19T04:10:30;100110;;;15;46
78843;BME280;70542;53.774;-0.352;2023-09-19T04:16:08;100100;;;14;46
78843;BME280;70542;53.774;-0.352;2023-09-19T04:21:47;100100;;;12;50
78843;BME280;70542;53.774;-0.352;2023-09-19T04:27:26;100090;;;14;47
78843;BME280;70542;53.774;-0.352;2023-09-19T04:33:04;100100;;;14;45
78843;BME280;70542;53.774;-0.352;2023-09-19T04:38:43;100090;;;13;48
78843;BME280;70542;53.774;-0.352;2023-09-19T04:44:23;100090;;;14;48
78843;BME280;70542;53.774;-0.352;2023-09-19T04:50:02;100080;;;13;49
78843;BME280;70542;53.774;-0.352;2023-09-19T04:55:40;100080;;;14;49
78843;BME280;70542;53.774;-0.352;2023-09-19T05:01:19;100070;;;13;51
78843;BME280;70542;53.774;-0.352;2023-09-19T05:06:58;100060;;;13;51
78843;BME280;70542;53.774;-0.352;2023-09-19T05:12:37;100070;;;14;51
78843;BME280;70542;53.774;-0.352;2023-09-19T05:18:16;100080;;;14;51
78843;BME280;70542;53.774;-0.352;2023-09-19T05:23:54;100060;;;12;53
78843;BME280;70542;53.774;-0.352;2023-09-19T05:29:34;100060;;;14;51
78843;BME280;70542;53.774;-0.352;2023-09-19T05:35:13;100040;;;13;53
78843;BME280;70542;53.774;-0.352;2023-09-19T05:40:51;100020;;;12;55
78843;BME280;70542;53.774;-0.352;2023-09-19T05:46:31;99990;;;14;51
78843;BME280;70542;53.774;-0.352;2023-09-19T05:52:16;99970;;;14;52
78843;BME280;70542;53.774;-0.352;2023-09-19T05:57:54;99960;;;13;54
78843;BME280;70542;53.774;-0.352;2023-09-19T06:03:33;99950;;;13;52
78843;BME280;70542;53.774;-0.352;2023-09-19T06:09:12;99930;;;13;53
78843;BME280;70542;53.774;-0.352;2023-09-19T06:14:50;99920;;;12;55
78843;BME280;70542;53.774;-0.352;2023-09-19T06:20:29;99900;;;13;53
78843;BME280;70542;53.774;-0.352;2023-09-19T06:26:08;99900;;;13;54
78843;BME280;70542;53.774;-0.352;2023-09-19T06:31:47;99900;;;13;55
78843;BME280;70542;53.774;-0.352;2023-09-19T06:37:27;99880;;;12;57
78843;BME280;70542;53.774;-0.352;2023-09-19T06:43:06;99870;;;12;56
78843;BME280;70542;53.774;-0.352;2023-09-19T06:48:45;99860;;;12;57
78843;BME280;70542;53.774;-0.352;2023-09-19T06:54:23;99840;;;12;57
78843;BME280;70542;53.774;-0.352;2023-09-19T07:00:02;99820;;;12;58
78843;BME280;70542;53.774;-0.352;2023-09-19T07:05:41;99810;;;12;59
78843;BME280;70542;53.774;-0.352;2023-09-19T07:11:20;99770;;;12;60
78843;BME280;70542;53.774;-0.352;2023-09-19T07:16:59;99760;;;13;57
78843;BME280;70542;53.774;-0.352;2023-09-19T07:22:37;99730;;;12;59
78843;BME280;70542;53.774;-0.352;2023-09-19T07:28:16;99700;;;11;63
78843;BME280;70542;53.774;-0.352;2023-09-19T07:33:55;99680;;;11;63
78843;BME280;70542;53.774;-0.352;2023-09-19T07:39:34;99660;;;11;65
78843;BME280;70542;53.774;-0.352;2023-09-19T07:45:13;99630;;;13;61
78843;BME280;70542;53.774;-0.352;2023-09-19T07:50:52;99630;;;12;63
78843;BME280;70542;53.774;-0.352;2023-09-19T07:56:30;99620;;;12;63
78843;BME280;70542;53.774;-0.352;2023-09-19T08:02:09;99590;;;11;67
78843;BME280;70542;53.774;-0.352;2023-09-19T08:07:47;99580;;;12;66
78843;BME280;70542;53.774;-0.352;2023-09-19T08:13:26;99570;;;13;64
78843;BME280;70542;53.774;-0.352;2023-09-19T08:19:05;99540;;;13;63
78843;BME280;70542;53.774;-0.352;2023-09-19T08:24:43;99530;;;12;63
78843;BME280;70542;53.774;-0.352;2023-09-19T08:30:23;99520;;;13;62
78843;BME280;70542;53.774;-0.352;2023-09-19T08:36:02;99520;;;13;62
78843;BME280;70542;53.774;-0.352;2023-09-19T08:41:41;99520;;;13;61
78843;BME280;70542;53.774;-0.352;2023-09-19T08:47:25;99510;;;13;64
78843;BME280;70542;53.774;-0.352;2023-09-19T08:53:11;99510;;;15;58
78843;BME280;70542;53.774;-0.352;2023-09-19T08:58:51;99500;;;14;60
78843;BME280;70542;53.774;-0.352;2023-09-19T09:04:39;99500;;;15;59
78843;BME280;70542;53.774;-0.352;2023-09-19T09:10:19;99500;;;14;60
78843;BME280;70542;53.774;-0.352;2023-09-19T09:15:58;99490;;;14;60
78843;BME280;70542;53.774;-0.352;2023-09-19T09:21:37;99480;;;15;58
78843;BME280;70542;53.774;-0.352;2023-09-19T09:27:15;99480;;;16;57
78843;BME280;70542;53.774;-0.352;2023-09-19T09:38:44;99470;;;15;57
78843;BME280;70542;53.774;-0.352;2023-09-19T09:44:23;99460;;;15;60
78843;BME280;70542;53.774;-0.352;2023-09-19T09:50:01;99460;;;15;58
78843;BME280;70542;53.774;-0.352;2023-09-19T10:01:46;99460;;;16;57
78843;BME280;70542;53.774;-0.352;2023-09-19T10:07:31;99460;;;16;58
78843;BME280;70542;53.774;-0.352;2023-09-19T10:13:11;99440;;;15;58
78843;BME280;70542;53.774;-0.352;2023-09-19T10:18:53;99440;;;16;57
78843;BME280;70542;53.774;-0.352;2023-09-19T10:24:34;99440;;;17;56
78843;BME280;70542;53.774;-0.352;2023-09-19T10:30:13;99440;;;16;58
78843;BME280;70542;53.774;-0.352;2023-09-19T10:35:53;99430;;;17;56
78843;BME280;70542;53.774;-0.352;2023-09-19T10:41:34;99430;;;17;56
78843;BME280;70542;53.774;-0.352;2023-09-19T10:47:13;99420;;;16;58
78843;BME280;70542;53.774;-0.352;2023-09-19T10:52:53;99410;;;17;56
78843;BME280;70542;53.774;-0.352;2023-09-19T10:58:33;99420;;;17;57
78843;BME280;70542;53.774;-0.352;2023-09-19T11:04:22;99400;;;17;56
78843;BME280;70542;53.774;-0.352;2023-09-19T11:10:01;99410;;;16;58
78843;BME280;70542;53.774;-0.352;2023-09-19T11:21:40;99400;;;17;56
78843;BME280;70542;53.774;-0.352;2023-09-19T11:27:19;99410;;;19;53
78843;BME280;70542;53.774;-0.352;2023-09-19T11:33:16;99430;;;18;54
78843;BME280;70542;53.774;-0.352;2023-09-19T11:38:59;99450;;;18;54
78843;BME280;70542;53.774;-0.352;2023-09-19T11:44:37;99430;;;18;54
78843;BME280;70542;53.774;-0.352;2023-09-19T11:50:19;99450;;;19;53
78843;BME280;70542;53.774;-0.352;2023-09-19T11:55:59;99450;;;20;51
78843;BME280;70542;53.774;-0.352;2023-09-19T12:01:43;99450;;;19;52
78843;BME280;70542;53.774;-0.352;2023-09-19T12:07:26;99450;;;19;52
78843;BME280;70542;53.774;-0.352;2023-09-19T12:13:05;99460;;;19;52
78843;BME280;70542;53.774;-0.352;2023-09-19T12:18:45;99460;;;20;51
78843;BME280;70542;53.774;-0.352;2023-09-19T12:24:25;99480;;;20;52
78843;BME280;70542;53.774;-0.352;2023-09-19T12:30:04;99490;;;20;51
78843;BME280;70542;53.774;-0.352;2023-09-19T12:35:43;99480;;;19;52
78843;BME280;70542;53.774;-0.352;2023-09-19T12:41:22;99490;;;19;52
78843;BME280;70542;53.774;-0.352;2023-09-19T12:47:09;99490;;;20;52
78843;BME280;70542;53.774;-0.352;2023-09-19T12:52:49;99490;;;20;50
78843;BME280;70542;53.774;-0.352;2023-09-19T12:58:28;99490;;;19;52
78843;BME280;70542;53.774;-0.352;2023-09-19T13:04:13;99520;;;19;51
78843;BME280;70542;53.774;-0.352;2023-09-19T13:10:03;99520;;;19;52
78843;BME280;70542;53.774;-0.352;2023-09-19T13:15:51;99510;;;19;51
78843;BME280;70542;53.774;-0.352;2023-09-19T13:21:31;99520;;;20;51
78843;BME280;70542;53.774;-0.352;2023-09-19T13:27:10;99520;;;21;48
78843;BME280;70542;53.774;-0.352;2023-09-19T13:32:49;99510;;;20;49
78843;BME280;70542;53.774;-0.352;2023-09-19T13:38:28;99520;;;20;52
78843;BME280;70542;53.774;-0.352;2023-09-19T13:44:10;99530;;;19;52
78843;BME280;70542;53.774;-0.352;2023-09-19T13:49:49;99530;;;20;51
78843;BME280;70542;53.774;-0.352;2023-09-19T13:55:27;99520;;;21;49
78843;BME280;70542;53.774;-0.352;2023-09-19T14:01:06;99530;;;21;50
78843;BME280;70542;53.774;-0.352;2023-09-19T14:06:45;99530;;;20;51
78843;BME280;70542;53.774;-0.352;2023-09-19T14:12:23;99540;;;19;52
78843;BME280;70542;53.774;-0.352;2023-09-19T14:18:02;99540;;;21;48
78843;BME280;70542;53.774;-0.352;2023-09-19T14:23:41;99550;;;21;48
78843;BME280;70542;53.774;-0.352;2023-09-19T14:29:20;99570;;;20;50
78843;BME280;70542;53.774;-0.352;2023-09-19T14:34:58;99580;;;20;50
78843;BME280;70542;53.774;-0.352;2023-09-19T14:40:37;99580;;;20;50
78843;BME280;70542;53.774;-0.352;2023-09-19T14:46:15;99580;;;20;51
78843;BME280;70542;53.774;-0.352;2023-09-19T14:51:54;99590;;;21;48
78843;BME280;70542;53.774;-0.352;2023-09-19T14:57:33;99590;;;20;50
78843;BME280;70542;53.774;-0.352;2023-09-19T15:03:11;99580;;;21;48
78843;BME280;70542;53.774;-0.352;2023-09-19T15:08:50;99580;;;21;48
78843;BME280;70542;53.774;-0.352;2023-09-19T15:14:29;99570;;;21;48
78843;BME280;70542;53.774;-0.352;2023-09-19T15:20:08;99570;;;20;48
78843;BME280;70542;53.774;-0.352;2023-09-19T15:25:48;99590;;;21;48
78843;BME280;70542;53.774;-0.352;2023-09-19T15:31:26;99600;;;20;49
78843;BME280;70542;53.774;-0.352;2023-09-19T15:37:05;99600;;;20;50
78843;BME280;70542;53.774;-0.352;2023-09-19T15:42:44;99600;;;19;52
78843;BME280;70542;53.774;-0.352;2023-09-19T15:48:28;99600;;;20;50
78843;BME280;70542;53.774;-0.352;2023-09-19T15:54:14;99610;;;19;52
78843;BME280;70542;53.774;-0.352;2023-09-19T15:59:53;99600;;;20;51
78843;BME280;70542;53.774;-0.352;2023-09-19T16:05:35;99610;;;19;52
78843;BME280;70542;53.774;-0.352;2023-09-19T16:11:15;99600;;;19;52
78843;BME280;70542;53.774;-0.352;2023-09-19T16:16:54;99610;;;20;50
78843;BME280;70542;53.774;-0.352;2023-09-19T16:22:45;99620;;;19;52
78843;BME280;70542;53.774;-0.352;2023-09-19T16:28:24;99630;;;18;54
78843;BME280;70542;53.774;-0.352;2023-09-19T16:34:03;99630;;;18;53
78843;BME280;70542;53.774;-0.352;2023-09-19T16:39:41;99630;;;19;50
78843;BME280;70542;53.774;-0.352;2023-09-19T16:45:20;99630;;;20;49
78843;BME280;70542;53.774;-0.352;2023-09-19T16:51:00;99660;;;19;51
78843;BME280;70542;53.774;-0.352;2023-09-19T16:56:39;99650;;;20;50
78843;BME280;70542;53.774;-0.352;2023-09-19T17:02:18;99660;;;19;50
78843;BME280;70542;53.774;-0.352;2023-09-19T17:07:58;99650;;;19;50
78843;BME280;70542;53.774;-0.352;2023-09-19T17:13:43;99640;;;20;48
78843;BME280;70542;53.774;-0.352;2023-09-19T17:19:38;99640;;;20;48
78843;BME280;70542;53.774;-0.352;2023-09-19T17:25:18;99640;;;18;52
78843;BME280;70542;53.774;-0.352;2023-09-19T17:30:57;99630;;;19;51
78843;BME280;70542;53.774;-0.352;2023-09-19T17:36:35;99640;;;19;51
78843;BME280;70542;53.774;-0.352;2023-09-19T17:42:14;99640;;;19;51
78843;BME280;70542;53.774;-0.352;2023-09-19T17:47:53;99660;;;19;52
78843;BME280;70542;53.774;-0.352;2023-09-19T17:53:32;99660;;;18;52
78843;BME280;70542;53.774;-0.352;2023-09-19T17:59:11;99670;;;18;51
78843;BME280;70542;53.774;-0.352;2023-09-19T18:04:49;99680;;;19;50
78843;BME280;70542;53.774;-0.352;2023-09-19T18:10:28;99680;;;18;52
78843;BME280;70542;53.774;-0.352;2023-09-19T18:16:07;99690;;;18;51
78843;BME280;70542;53.774;-0.352;2023-09-19T18:21:46;99690;;;18;53
78843;BME280;70542;53.774;-0.352;2023-09-19T18:27:24;99700;;;18;51
78843;BME280;70542;53.774;-0.352;2023-09-19T18:33:04;99690;;;17;53
78843;BME280;70542;53.774;-0.352;2023-09-19T18:38:43;99690;;;18;51
78843;BME280;70542;53.774;-0.352;2023-09-19T18:44:22;99700;;;19;49
78843;BME280;70542;53.774;-0.352;2023-09-19T18:50:01;99710;;;18;51
78843;BME280;70542;53.774;-0.352;2023-09-19T18:55:40;99710;;;19;49
78843;BME280;70542;53.774;-0.352;2023-09-19T19:01:19;99700;;;19;49
78843;BME280;70542;53.774;-0.352;2023-09-19T19:06:58;99690;;;18;49
78843;BME280;70542;53.774;-0.352;2023-09-19T19:12:37;99700;;;19;48
78843;BME280;70542;53.774;-0.352;2023-09-19T19:18:16;99690;;;18;50
78843;BME280;70542;53.774;-0.352;2023-09-19T19:23:55;99690;;;18;51
78843;BME280;70542;53.774;-0.352;2023-09-19T19:29:34;99690;;;18;51
78843;BME280;70542;53.774;-0.352;2023-09-19T19:35:12;99710;;;18;50
78843;BME280;70542;53.774;-0.352;2023-09-19T19:40:57;99710;;;19;48
78843;BME280;70542;53.774;-0.352;2023-09-19T19:46:36;99710;;;19;47
78843;BME280;70542;53.774;-0.352;2023-09-19T19:52:15;99700;;;18;49
78843;BME280;70542;53.774;-0.352;2023-09-19T19:57:53;99700;;;19;47
78843;BME280;70542;53.774;-0.352;2023-09-19T20:03:34;99680;;;19;46
78843;BME280;70542;53.774;-0.352;2023-09-19T20:09:12;99700;;;18;48
78843;BME280;70542;53.774;-0.352;2023-09-19T20:14:51;99700;;;18;48
78843;BME280;70542;53.774;-0.352;2023-09-19T20:20:30;99710;;;18;49
78843;BME280;70542;53.774;-0.352;2023-09-19T20:26:08;99700;;;19;48
78843;BME280;70542;53.774;-0.352;2023-09-19T20:31:47;99710;;;19;48
78843;BME280;70542;53.774;-0.352;2023-09-19T20:37:26;99720;;;19;46
78843;BME280;70542;53.774;-0.352;2023-09-19T20:43:05;99730;;;20;45
78843;BME280;70542;53.774;-0.352;2023-09-19T20:48:46;99750;;;18;50
78843;BME280;70542;53.774;-0.352;2023-09-19T20:54:24;99740;;;18;50
78843;BME280;70542;53.774;-0.352;2023-09-19T21:00:03;99740;;;19;48
78843;BME280;70542;53.774;-0.352;2023-09-19T21:05:42;99740;;;20;46
78843;BME280;70542;53.774;-0.352;2023-09-19T21:11:22;99730;;;19;47
78843;BME280;70542;53.774;-0.352;2023-09-19T21:17:01;99720;;;19;48
78843;BME280;70542;53.774;-0.352;2023-09-19T21:22:40;99720;;;18;49
78843;BME280;70542;53.774;-0.352;2023-09-19T21:30:31;99710;;;17;51
78843;BME280;70542;53.774;-0.352;2023-09-19T21:36:11;99700;;;17;51
78843;BME280;70542;53.774;-0.352;2023-09-19T21:41:50;99700;;;18;50
78843;BME280;70542;53.774;-0.352;2023-09-19T21:47:29;99700;;;18;50
78843;BME280;70542;53.774;-0.352;2023-09-19T21:53:08;99690;;;19;48
78843;BME280;70542;53.774;-0.352;2023-09-19T21:58:47;99680;;;17;51
78843;BME280;70542;53.774;-0.352;2023-09-19T22:04:25;99680;;;18;49
78843;BME280;70542;53.774;-0.352;2023-09-19T22:10:05;99680;;;19;47
78843;BME280;70542;53.774;-0.352;2023-09-19T22:15:43;99670;;;18;49
78843;BME280;70542;53.774;-0.352;2023-09-19T22:21:22;99670;;;18;49
78843;BME280;70542;53.774;-0.352;2023-09-19T22:27:01;99680;;;17;49
78843;BME280;70542;53.774;-0.352;2023-09-19T22:32:39;99660;;;18;50
78843;BME280;70542;53.774;-0.352;2023-09-19T22:38:19;99660;;;17;51
78843;BME280;70542;53.774;-0.352;2023-09-19T22:43:57;99660;;;19;49
78843;BME280;70542;53.774;-0.352;2023-09-19T22:49:36;99660;;;17;52
78843;BME280;70542;53.774;-0.352;2023-09-19T22:55:15;99660;;;17;51
78843;BME280;70542;53.774;-0.352;2023-09-19T23:00:53;99660;;;17;53
78843;BME280;70542;53.774;-0.352;2023-09-19T23:06:32;99650;;;17;53
78843;BME280;70542;53.774;-0.352;2023-09-19T23:12:13;99640;;;17;52
78843;BME280;70542;53.774;-0.352;2023-09-19T23:17:52;99640;;;16;54
78843;BME280;70542;53.774;-0.352;2023-09-19T23:23:31;99640;;;17;54
78843;BME280;70542;53.774;-0.352;2023-09-19T23:29:10;99650;;;18;52
78843;BME280;70542;53.774;-0.352;2023-09-19T23:34:48;99640;;;18;52
78843;BME280;70542;53.774;-0.352;2023-09-19T23:40:27;99630;;;17;53
78843;BME280;70542;53.774;-0.352;2023-09-19T23:46:05;99630;;;17;53
78843;BME280;70542;53.774;-0.352;2023-09-19T23:51:44;99630;;;18;52
78843;BME280;70542;53.774;-0.352;2023-09-19T23:57:22;99620;;;18;51
